Pyatte, North Carolina
Current Conditions -  °F | °C
As of 9:15 AM on Thursday 27 Nov 2014 (Local Time) from KTNB Reporting Station
Moderate Snow Moderate Snow  
Wind Chill: 18°   Ceiling: 500
Heat Index: 31°   Visibility: 0.5mi
Dew Point: 31°   Wind: 24mph
Humidity: 99%   Direction: 300°WNW
Pressure: 29.98"   Gusts: 38mph
Location:  36.0227°N, 81.9499°W
Report Text: KTNB 271415Z AUTO 30021G33KT 1/2SM SN BKN005 BKN010 BKN016 00/M01 A2998 RMK AO2 T10051007
Loading
Personal Weather Stations






























Interactive Weather Map New forecast layout! Learn more

10-Day Weather Forecast

Advertisements
Track Severe Weather on mobile